Terminal Aerodrome Forecast
Issued by NWS Charleston, WV

Current Version | Previous Version | Graphics & Text | Print | Product List | Glossary On
Versions: 1 2 3 4 5 6 7 8 9 10 11 12 13 14 15 16 17 18 19 20 21 22 23 24
704
FTUS41 KRLX 132338
TAFEKN
TAF
KEKN 132338Z 1400/1424 32006KT P6SM BKN025
      TEMPO 1400/1404 -SHSN
     FM140700 VRB03KT P6SM BKN025
     FM141200 VRB03KT P6SM SCT025=

USA.gov is the U.S. government's official web portal to all federal, state and local government web resources and services.